sensor_id;sensor_type;location;lat;lon;timestamp;pressure;altitude;pressure_sealevel;temperature;humidity
52923;BME280;38796;42.702;23.306;2023-01-24T00:01:49;96219.25;;;3.70;99.79
52923;BME280;38796;42.702;23.306;2023-01-24T00:03:47;96225.44;;;3.68;99.98
52923;BME280;38796;42.702;23.306;2023-01-24T00:05:47;96223.75;;;3.67;100.00
52923;BME280;38796;42.702;23.306;2023-01-24T00:07:46;96216.03;;;3.65;100.00
52923;BME280;38796;42.702;23.306;2023-01-24T00:09:44;96211.53;;;3.69;99.90
52923;BME280;38796;42.702;23.306;2023-01-24T00:11:44;96218.53;;;3.67;100.00
52923;BME280;38796;42.702;23.306;2023-01-24T00:13:42;96224.72;;;3.64;99.85
52923;BME280;38796;42.702;23.306;2023-01-24T00:15:41;96220.41;;;3.65;100.00
52923;BME280;38796;42.702;23.306;2023-01-24T00:17:39;96224.59;;;3.67;100.00
52923;BME280;38796;42.702;23.306;2023-01-24T00:19:37;96228.34;;;3.61;100.00
52923;BME280;38796;42.702;23.306;2023-01-24T00:21:36;96231.06;;;3.58;100.00
52923;BME280;38796;42.702;23.306;2023-01-24T00:23:34;96237.13;;;3.59;100.00
52923;BME280;38796;42.702;23.306;2023-01-24T00:25:32;96237.13;;;3.59;100.00
52923;BME280;38796;42.702;23.306;2023-01-24T00:27:32;96241.53;;;3.57;100.00
52923;BME280;38796;42.702;23.306;2023-01-24T00:29:31;96234.75;;;3.54;100.00
52923;BME280;38796;42.702;23.306;2023-01-24T00:31:30;96245.06;;;3.56;100.00
52923;BME280;38796;42.702;23.306;2023-01-24T00:33:28;96245.16;;;3.54;100.00
52923;BME280;38796;42.702;23.306;2023-01-24T00:35:26;96235.72;;;3.52;100.00
52923;BME280;38796;42.702;23.306;2023-01-24T00:37:25;96232.19;;;3.53;100.00
52923;BME280;38796;42.702;23.306;2023-01-24T00:39:24;96238.31;;;3.52;100.00
52923;BME280;38796;42.702;23.306;2023-01-24T00:41:23;96244.44;;;3.51;100.00
52923;BME280;38796;42.702;23.306;2023-01-24T00:43:24;96243.44;;;3.53;100.00
52923;BME280;38796;42.702;23.306;2023-01-24T00:45:23;96248.72;;;3.52;100.00
52923;BME280;38796;42.702;23.306;2023-01-24T00:47:24;96238.31;;;3.52;100.00
52923;BME280;38796;42.702;23.306;2023-01-24T00:49:22;96246.19;;;3.50;100.00
52923;BME280;38796;42.702;23.306;2023-01-24T00:51:20;96248.94;;;3.47;100.00
52923;BME280;38796;42.702;23.306;2023-01-24T00:53:20;96241.84;;;3.51;100.00
52923;BME280;38796;42.702;23.306;2023-01-24T00:55:18;96233.19;;;3.50;100.00
52923;BME280;38796;42.702;23.306;2023-01-24T00:57:17;96242.81;;;3.48;100.00
52923;BME280;38796;42.702;23.306;2023-01-24T00:59:16;96247.19;;;3.48;100.00
52923;BME280;38796;42.702;23.306;2023-01-24T01:01:15;96240.34;;;3.45;100.00
52923;BME280;38796;42.702;23.306;2023-01-24T01:03:16;96241.03;;;3.49;100.00
52923;BME280;38796;42.702;23.306;2023-01-24T01:05:15;96242.06;;;3.46;100.00
52923;BME280;38796;42.702;23.306;2023-01-24T01:07:14;96250.03;;;3.42;100.00
52923;BME280;38796;42.702;23.306;2023-01-24T01:09:12;96244.00;;;3.41;100.00
52923;BME280;38796;42.702;23.306;2023-01-24T01:11:11;96238.78;;;3.41;100.00
52923;BME280;38796;42.702;23.306;2023-01-24T01:13:11;96247.66;;;3.37;100.00
52923;BME280;38796;42.702;23.306;2023-01-24T01:15:11;96244.13;;;3.38;100.00
52923;BME280;38796;42.702;23.306;2023-01-24T01:17:09;96240.63;;;3.39;100.00
52923;BME280;38796;42.702;23.306;2023-01-24T01:19:08;96244.97;;;3.38;100.00
52923;BME280;38796;42.702;23.306;2023-01-24T01:21:06;96252.84;;;3.37;100.00
52923;BME280;38796;42.702;23.306;2023-01-24T01:23:04;96243.28;;;3.37;100.00
52923;BME280;38796;42.702;23.306;2023-01-24T01:25:03;96250.97;;;3.41;100.00
52923;BME280;38796;42.702;23.306;2023-01-24T01:27:03;96250.13;;;3.40;100.00
52923;BME280;38796;42.702;23.306;2023-01-24T01:29:02;96241.34;;;3.43;100.00
52923;BME280;38796;42.702;23.306;2023-01-24T01:31:02;96250.03;;;3.42;100.00
52923;BME280;38796;42.702;23.306;2023-01-24T01:33:00;96254.34;;;3.43;100.00
52923;BME280;38796;42.702;23.306;2023-01-24T01:34:58;96236.25;;;3.40;100.00
52923;BME280;38796;42.702;23.306;2023-01-24T01:36:57;96243.41;;;3.34;100.00
52923;BME280;38796;42.702;23.306;2023-01-24T01:38:56;96246.94;;;3.33;100.00
52923;BME280;38796;42.702;23.306;2023-01-24T01:40:54;96241.00;;;3.30;100.00
52923;BME280;38796;42.702;23.306;2023-01-24T01:42:54;96242.81;;;3.28;99.99
52923;BME280;38796;42.702;23.306;2023-01-24T01:44:53;96250.72;;;3.26;100.00
52923;BME280;38796;42.702;23.306;2023-01-24T01:46:53;96251.69;;;3.24;100.00
52923;BME280;38796;42.702;23.306;2023-01-24T01:48:53;96240.31;;;3.26;100.00
52923;BME280;38796;42.702;23.306;2023-01-24T01:50:58;96243.81;;;3.25;100.00
52923;BME280;38796;42.702;23.306;2023-01-24T01:52:58;96241.34;;;3.22;100.00
52923;BME280;38796;42.702;23.306;2023-01-24T01:55:00;96241.56;;;3.18;100.00
52923;BME280;38796;42.702;23.306;2023-01-24T01:57:02;96250.25;;;3.17;100.00
52923;BME280;38796;42.702;23.306;2023-01-24T01:59:07;96239.91;;;3.15;100.00
52923;BME280;38796;42.702;23.306;2023-01-24T02:01:08;96247.78;;;3.13;100.00
52923;BME280;38796;42.702;23.306;2023-01-24T02:03:11;96244.28;;;3.15;100.00
52923;BME280;38796;42.702;23.306;2023-01-24T02:05:44;96234.00;;;3.11;100.00
52923;BME280;38796;42.702;23.306;2023-01-24T02:07:49;96246.16;;;3.11;100.00
52923;BME280;38796;42.702;23.306;2023-01-24T02:09:52;96244.47;;;3.10;100.00
52923;BME280;38796;42.702;23.306;2023-01-24T02:11:53;96238.38;;;3.11;100.00
52923;BME280;38796;42.702;23.306;2023-01-24T02:13:52;96234.97;;;3.09;100.00
52923;BME280;38796;42.702;23.306;2023-01-24T02:16:14;96232.38;;;3.09;100.00
52923;BME280;38796;42.702;23.306;2023-01-24T02:18:13;96229.13;;;3.04;100.00
52923;BME280;38796;42.702;23.306;2023-01-24T02:20:26;96229.19;;;3.02;100.00
52923;BME280;38796;42.702;23.306;2023-01-24T02:22:32;96232.91;;;2.97;100.00
52923;BME280;38796;42.702;23.306;2023-01-24T02:24:37;96236.25;;;2.99;100.00
52923;BME280;38796;42.702;23.306;2023-01-24T02:26:39;96224.97;;;3.00;100.00
52923;BME280;38796;42.702;23.306;2023-01-24T02:28:39;96232.78;;;3.00;100.00
52923;BME280;38796;42.702;23.306;2023-01-24T02:30:38;96230.28;;;2.97;100.00
52923;BME280;38796;42.702;23.306;2023-01-24T02:32:36;96232.91;;;2.97;100.00
52923;BME280;38796;42.702;23.306;2023-01-24T02:34:35;96233.78;;;2.96;100.00
52923;BME280;38796;42.702;23.306;2023-01-24T02:36:36;96232.19;;;2.93;100.00
52923;BME280;38796;42.702;23.306;2023-01-24T02:38:35;96239.06;;;2.94;100.00
52923;BME280;38796;42.702;23.306;2023-01-24T02:40:34;96227.63;;;2.98;100.00
52923;BME280;38796;42.702;23.306;2023-01-24T02:42:36;96227.56;;;3.00;100.00
52923;BME280;38796;42.702;23.306;2023-01-24T02:44:40;96228.41;;;3.00;100.00
52923;BME280;38796;42.702;23.306;2023-01-24T02:46:42;96234.59;;;2.98;100.00
52923;BME280;38796;42.702;23.306;2023-01-24T02:48:41;96230.28;;;2.97;100.00
52923;BME280;38796;42.702;23.306;2023-01-24T02:50:39;96236.38;;;2.96;100.00
52923;BME280;38796;42.702;23.306;2023-01-24T02:52:55;96229.47;;;2.96;100.00
52923;BME280;38796;42.702;23.306;2023-01-24T02:55:10;96231.34;;;2.93;100.00
52923;BME280;38796;42.702;23.306;2023-01-24T02:57:10;96229.59;;;2.93;100.00
52923;BME280;38796;42.702;23.306;2023-01-24T02:59:27;96231.38;;;2.91;100.00
52923;BME280;38796;42.702;23.306;2023-01-24T03:01:26;96233.22;;;2.89;100.00
52923;BME280;38796;42.702;23.306;2023-01-24T03:03:26;96236.66;;;2.89;100.00
52923;BME280;38796;42.702;23.306;2023-01-24T03:05:25;96222.88;;;2.87;100.00
52923;BME280;38796;42.702;23.306;2023-01-24T03:07:43;96225.41;;;2.89;100.00
52923;BME280;38796;42.702;23.306;2023-01-24T03:09:45;96218.50;;;2.88;100.00
52923;BME280;38796;42.702;23.306;2023-01-24T03:11:50;96225.47;;;2.87;100.00
52923;BME280;38796;42.702;23.306;2023-01-24T03:13:49;96224.63;;;2.87;100.00
52923;BME280;38796;42.702;23.306;2023-01-24T03:16:07;96229.78;;;2.88;100.00
52923;BME280;38796;42.702;23.306;2023-01-24T03:18:23;96229.19;;;2.82;100.00
52923;BME280;38796;42.702;23.306;2023-01-24T03:20:39;96220.53;;;2.81;100.00
52923;BME280;38796;42.702;23.306;2023-01-24T03:22:55;96228.34;;;2.81;100.00
52923;BME280;38796;42.702;23.306;2023-01-24T03:25:11;96222.44;;;2.78;100.00
52923;BME280;38796;42.702;23.306;2023-01-24T03:27:27;96222.44;;;2.78;100.00
52923;BME280;38796;42.702;23.306;2023-01-24T03:29:47;96236.31;;;2.77;100.00
52923;BME280;38796;42.702;23.306;2023-01-24T03:32:04;96228.50;;;2.77;100.00
52923;BME280;38796;42.702;23.306;2023-01-24T03:34:20;96221.63;;;2.76;100.00
52923;BME280;38796;42.702;23.306;2023-01-24T03:36:28;96229.56;;;2.73;100.00
52923;BME280;38796;42.702;23.306;2023-01-24T03:38:30;96237.44;;;2.71;100.00
52923;BME280;38796;42.702;23.306;2023-01-24T03:40:51;96227.16;;;2.68;100.00
52923;BME280;38796;42.702;23.306;2023-01-24T03:42:49;96228.22;;;2.62;100.00
52923;BME280;38796;42.702;23.306;2023-01-24T03:44:52;96235.06;;;2.65;100.00
52923;BME280;38796;42.702;23.306;2023-01-24T03:46:51;96225.50;;;2.65;100.00
52923;BME280;38796;42.702;23.306;2023-01-24T03:48:50;96223.03;;;2.62;100.00
52923;BME280;38796;42.702;23.306;2023-01-24T03:50:56;96230.84;;;2.62;100.00
52923;BME280;38796;42.702;23.306;2023-01-24T03:53:13;96224.16;;;2.57;100.00
52923;BME280;38796;42.702;23.306;2023-01-24T03:55:13;96224.78;;;2.62;100.00
52923;BME280;38796;42.702;23.306;2023-01-24T03:57:11;96211.03;;;2.60;100.00
52923;BME280;38796;42.702;23.306;2023-01-24T03:59:10;96218.94;;;2.57;100.00
52923;BME280;38796;42.702;23.306;2023-01-24T04:01:09;96214.72;;;2.54;100.00
52923;BME280;38796;42.702;23.306;2023-01-24T04:03:27;96223.34;;;2.55;100.00
52923;BME280;38796;42.702;23.306;2023-01-24T04:05:27;96220.00;;;2.53;100.00
52923;BME280;38796;42.702;23.306;2023-01-24T04:07:25;96214.00;;;2.51;100.00
52923;BME280;38796;42.702;23.306;2023-01-24T04:09:28;96212.44;;;2.47;100.00
52923;BME280;38796;42.702;23.306;2023-01-24T04:11:27;96205.41;;;2.49;100.00
52923;BME280;38796;42.702;23.306;2023-01-24T04:13:34;96224.47;;;2.49;100.00
52923;BME280;38796;42.702;23.306;2023-01-24T04:15:33;96216.91;;;2.43;100.00
52923;BME280;38796;42.702;23.306;2023-01-24T04:17:54;96213.59;;;2.39;100.00
52923;BME280;38796;42.702;23.306;2023-01-24T04:19:53;96210.97;;;2.39;100.00
52923;BME280;38796;42.702;23.306;2023-01-24T04:21:54;96207.59;;;2.37;100.00
52923;BME280;38796;42.702;23.306;2023-01-24T04:23:55;96211.09;;;2.36;100.00
52923;BME280;38796;42.702;23.306;2023-01-24T04:25:53;96212.06;;;2.34;100.00
52923;BME280;38796;42.702;23.306;2023-01-24T04:27:58;96219.03;;;2.33;100.00
52923;BME280;38796;42.702;23.306;2023-01-24T04:29:59;96217.22;;;2.35;100.00
52923;BME280;38796;42.702;23.306;2023-01-24T04:32:00;96217.25;;;2.34;100.00
52923;BME280;38796;42.702;23.306;2023-01-24T04:34:09;96213.69;;;2.36;100.00
52923;BME280;38796;42.702;23.306;2023-01-24T04:36:09;96212.91;;;2.34;100.00
52923;BME280;38796;42.702;23.306;2023-01-24T04:38:09;96213.81;;;2.33;100.00
52923;BME280;38796;42.702;23.306;2023-01-24T04:40:26;96214.81;;;2.31;100.00
52923;BME280;38796;42.702;23.306;2023-01-24T04:42:25;96215.56;;;2.33;100.00
52923;BME280;38796;42.702;23.306;2023-01-24T04:44:23;96219.09;;;2.32;100.00
52923;BME280;38796;42.702;23.306;2023-01-24T04:46:22;96224.22;;;2.33;100.00
52923;BME280;38796;42.702;23.306;2023-01-24T04:48:24;96233.88;;;2.30;100.00
52923;BME280;38796;42.702;23.306;2023-01-24T04:50:23;96228.75;;;2.28;100.00
52923;BME280;38796;42.702;23.306;2023-01-24T04:52:21;96242.00;;;2.22;100.00
52923;BME280;38796;42.702;23.306;2023-01-24T04:54:29;96224.75;;;2.20;100.00
52923;BME280;38796;42.702;23.306;2023-01-24T04:56:28;96230.88;;;2.19;100.00
52923;BME280;38796;42.702;23.306;2023-01-24T04:58:27;96228.22;;;2.20;100.00
52923;BME280;38796;42.702;23.306;2023-01-24T05:00:25;96220.56;;;2.17;100.00
52923;BME280;38796;42.702;23.306;2023-01-24T05:02:25;96223.91;;;2.19;100.00
52923;BME280;38796;42.702;23.306;2023-01-24T06:00:46;96298.78;;;2.09;100.00
52923;BME280;38796;42.702;23.306;2023-01-24T06:03:01;96290.13;;;2.09;100.00
52923;BME280;38796;42.702;23.306;2023-01-24T06:05:00;96300.41;;;2.12;100.00
52923;BME280;38796;42.702;23.306;2023-01-24T06:07:00;96304.72;;;2.13;100.00
52923;BME280;38796;42.702;23.306;2023-01-24T06:08:58;96295.09;;;2.15;100.00
52923;BME280;38796;42.702;23.306;2023-01-24T06:11:01;96303.69;;;2.17;100.00
52923;BME280;38796;42.702;23.306;2023-01-24T06:13:01;96312.38;;;2.16;100.00
52923;BME280;38796;42.702;23.306;2023-01-24T06:14:59;96313.25;;;2.16;100.00
52923;BME280;38796;42.702;23.306;2023-01-24T06:16:59;96316.81;;;2.14;100.00
52923;BME280;38796;42.702;23.306;2023-01-24T06:19:02;96314.31;;;2.11;100.00
52923;BME280;38796;42.702;23.306;2023-01-24T06:21:06;96309.13;;;2.11;100.00
52923;BME280;38796;42.702;23.306;2023-01-24T07:02:02;96360.28;;;1.35;100.00
52923;BME280;38796;42.702;23.306;2023-01-24T07:20:28;96372.34;;;1.36;100.00
52923;BME280;38796;42.702;23.306;2023-01-24T07:43:34;96388.03;;;1.33;100.00
52923;BME280;38796;42.702;23.306;2023-01-24T07:49:42;96396.53;;;1.38;100.00
52923;BME280;38796;42.702;23.306;2023-01-24T07:51:51;96395.78;;;1.35;100.00
52923;BME280;38796;42.702;23.306;2023-01-24T07:53:52;96405.31;;;1.34;100.00
52923;BME280;38796;42.702;23.306;2023-01-24T07:55:54;96400.31;;;1.28;100.00
52923;BME280;38796;42.702;23.306;2023-01-24T07:58:04;96410.78;;;1.25;100.00
52923;BME280;38796;42.702;23.306;2023-01-24T08:18:47;96410.44;;;1.62;100.00
52923;BME280;38796;42.702;23.306;2023-01-24T08:29:09;96415.28;;;1.72;100.00
52923;BME280;38796;42.702;23.306;2023-01-24T08:37:57;96430.75;;;1.50;100.00
52923;BME280;38796;42.702;23.306;2023-01-24T08:48:01;96430.00;;;1.46;100.00
52923;BME280;38796;42.702;23.306;2023-01-24T08:54:30;96428.25;;;1.73;100.00
52923;BME280;38796;42.702;23.306;2023-01-24T09:04:38;96414.75;;;1.87;100.00
52923;BME280;38796;42.702;23.306;2023-01-24T09:17:06;96417.31;;;1.88;100.00
52923;BME280;38796;42.702;23.306;2023-01-24T09:19:04;96411.09;;;1.92;100.00
52923;BME280;38796;42.702;23.306;2023-01-24T09:21:05;96416.94;;;1.99;100.00
52923;BME280;38796;42.702;23.306;2023-01-24T09:23:07;96417.50;;;2.07;100.00
52923;BME280;38796;42.702;23.306;2023-01-24T09:25:07;96407.75;;;2.14;100.00
52923;BME280;38796;42.702;23.306;2023-01-24T09:27:08;96404.19;;;2.16;100.00
52923;BME280;38796;42.702;23.306;2023-01-24T09:29:07;96420.66;;;2.15;100.00
52923;BME280;38796;42.702;23.306;2023-01-24T09:31:08;96411.84;;;2.20;100.00
52923;BME280;38796;42.702;23.306;2023-01-24T09:33:08;96412.16;;;2.35;100.00
52923;BME280;38796;42.702;23.306;2023-01-24T09:35:07;96409.03;;;2.49;100.00
52923;BME280;38796;42.702;23.306;2023-01-24T09:37:06;96413.44;;;2.47;100.00
52923;BME280;38796;42.702;23.306;2023-01-24T09:39:04;96407.63;;;2.40;99.18
52923;BME280;38796;42.702;23.306;2023-01-24T09:41:08;96408.84;;;2.30;98.57
52923;BME280;38796;42.702;23.306;2023-01-24T09:43:18;96412.44;;;2.28;100.00
52923;BME280;38796;42.702;23.306;2023-01-24T09:45:27;96410.66;;;2.75;100.00
52923;BME280;38796;42.702;23.306;2023-01-24T09:47:37;96405.56;;;2.94;99.38
52923;BME280;38796;42.702;23.306;2023-01-24T09:49:43;96400.03;;;3.24;98.38
52923;BME280;38796;42.702;23.306;2023-01-24T09:51:47;96404.28;;;3.69;95.91
52923;BME280;38796;42.702;23.306;2023-01-24T09:53:51;96406.41;;;3.59;93.31
52923;BME280;38796;42.702;23.306;2023-01-24T09:55:51;96402.03;;;3.17;94.30
52923;BME280;38796;42.702;23.306;2023-01-24T09:57:53;96409.81;;;3.19;95.06
52923;BME280;38796;42.702;23.306;2023-01-24T09:59:56;96403.16;;;3.11;95.82
52923;BME280;38796;42.702;23.306;2023-01-24T10:01:56;96387.88;;;3.24;95.33
52923;BME280;38796;42.702;23.306;2023-01-24T10:03:54;96389.59;;;3.25;95.58
52923;BME280;38796;42.702;23.306;2023-01-24T10:06:00;96394.66;;;3.06;94.67
52923;BME280;38796;42.702;23.306;2023-01-24T10:10:38;96388.50;;;3.09;94.77
52923;BME280;38796;42.702;23.306;2023-01-24T10:12:47;96394.84;;;2.80;95.60
52923;BME280;38796;42.702;23.306;2023-01-24T10:14:59;96381.81;;;2.81;96.20
52923;BME280;38796;42.702;23.306;2023-01-24T10:17:27;96386.03;;;2.84;96.36
52923;BME280;38796;42.702;23.306;2023-01-24T10:19:41;96384.56;;;2.77;96.90
52923;BME280;38796;42.702;23.306;2023-01-24T10:21:56;96382.06;;;2.52;95.74
52923;BME280;38796;42.702;23.306;2023-01-24T10:24:04;96380.84;;;2.38;97.21
52923;BME280;38796;42.702;23.306;2023-01-24T10:26:14;96395.03;;;2.30;97.53
52923;BME280;38796;42.702;23.306;2023-01-24T10:28:20;96372.25;;;2.36;97.96
52923;BME280;38796;42.702;23.306;2023-01-24T10:30:22;96387.84;;;2.36;98.04
52923;BME280;38796;42.702;23.306;2023-01-24T10:32:30;96374.94;;;2.57;98.16
52923;BME280;38796;42.702;23.306;2023-01-24T10:34:32;96371.97;;;2.88;97.57
52923;BME280;38796;42.702;23.306;2023-01-24T10:36:37;96372.97;;;2.85;96.27
52923;BME280;38796;42.702;23.306;2023-01-24T10:38:42;96374.59;;;2.88;95.92
52923;BME280;38796;42.702;23.306;2023-01-24T10:40:49;96368.81;;;2.81;95.06
52923;BME280;38796;42.702;23.306;2023-01-24T10:42:47;96377.16;;;2.89;95.96
52923;BME280;38796;42.702;23.306;2023-01-24T10:44:46;96374.34;;;2.72;94.88
52923;BME280;38796;42.702;23.306;2023-01-24T10:47:13;96375.50;;;2.65;95.82
52923;BME280;38796;42.702;23.306;2023-01-24T10:49:20;96365.16;;;2.63;96.24
52923;BME280;38796;42.702;23.306;2023-01-24T10:51:22;96366.47;;;2.52;95.79
52923;BME280;38796;42.702;23.306;2023-01-24T10:53:26;96364.88;;;2.48;97.07
52923;BME280;38796;42.702;23.306;2023-01-24T10:55:32;96381.00;;;2.57;96.89
52923;BME280;38796;42.702;23.306;2023-01-24T10:57:37;96373.75;;;2.65;97.13
52923;BME280;38796;42.702;23.306;2023-01-24T10:59:51;96367.19;;;2.77;97.34
52923;BME280;38796;42.702;23.306;2023-01-24T11:01:49;96366.66;;;2.69;96.36
52923;BME280;38796;42.702;23.306;2023-01-24T11:03:49;96368.59;;;2.64;96.78
52923;BME280;38796;42.702;23.306;2023-01-24T11:05:49;96358.50;;;2.56;96.36
52923;BME280;38796;42.702;23.306;2023-01-24T11:07:50;96368.19;;;2.53;97.17
52923;BME280;38796;42.702;23.306;2023-01-24T11:09:49;96363.53;;;2.61;96.81
52923;BME280;38796;42.702;23.306;2023-01-24T11:11:50;96361.03;;;2.58;95.76
52923;BME280;38796;42.702;23.306;2023-01-24T11:13:54;96362.00;;;2.55;96.26
52923;BME280;38796;42.702;23.306;2023-01-24T11:15:55;96359.97;;;2.63;96.38
52923;BME280;38796;42.702;23.306;2023-01-24T11:17:59;96353.13;;;2.83;96.50
52923;BME280;38796;42.702;23.306;2023-01-24T11:20:20;96351.16;;;2.88;95.74
52923;BME280;38796;42.702;23.306;2023-01-24T11:22:22;96358.25;;;2.84;96.21
52923;BME280;38796;42.702;23.306;2023-01-24T11:24:21;96350.53;;;2.61;95.12
52923;BME280;38796;42.702;23.306;2023-01-24T11:26:23;96344.59;;;2.57;96.25
52923;BME280;38796;42.702;23.306;2023-01-24T11:28:27;96348.44;;;2.47;96.47
52923;BME280;38796;42.702;23.306;2023-01-24T11:30:36;96343.13;;;2.28;96.73
52923;BME280;38796;42.702;23.306;2023-01-24T11:32:50;96343.44;;;2.19;98.79
52923;BME280;38796;42.702;23.306;2023-01-24T11:34:57;96338.13;;;2.22;100.00
52923;BME280;38796;42.702;23.306;2023-01-24T11:37:11;96341.03;;;2.14;98.89
52923;BME280;38796;42.702;23.306;2023-01-24T11:39:22;96343.44;;;2.19;99.33
52923;BME280;38796;42.702;23.306;2023-01-24T11:41:26;96338.44;;;2.14;99.62
52923;BME280;38796;42.702;23.306;2023-01-24T11:43:39;96348.41;;;2.02;99.77
52923;BME280;38796;42.702;23.306;2023-01-24T11:45:59;96354.69;;;2.20;99.73
52923;BME280;38796;42.702;23.306;2023-01-24T11:48:09;96344.53;;;2.13;100.00
52923;BME280;38796;42.702;23.306;2023-01-24T11:50:27;96349.09;;;2.30;98.85
52923;BME280;38796;42.702;23.306;2023-01-24T11:52:52;96348.41;;;2.25;98.02
52923;BME280;38796;42.702;23.306;2023-01-24T11:55:03;96338.34;;;2.16;98.59
52923;BME280;38796;42.702;23.306;2023-01-24T11:57:15;96345.41;;;2.12;98.83
52923;BME280;38796;42.702;23.306;2023-01-24T11:59:53;96348.19;;;2.08;98.13
52923;BME280;38796;42.702;23.306;2023-01-24T12:02:07;96341.69;;;2.20;98.39
52923;BME280;38796;42.702;23.306;2023-01-24T12:07:08;96342.41;;;2.23;97.49
52923;BME280;38796;42.702;23.306;2023-01-24T12:09:18;96342.59;;;2.19;97.50
52923;BME280;38796;42.702;23.306;2023-01-24T12:11:20;96340.00;;;2.19;97.27
52923;BME280;38796;42.702;23.306;2023-01-24T12:13:39;96344.13;;;2.24;96.65
52923;BME280;38796;42.702;23.306;2023-01-24T12:15:53;96340.84;;;2.19;97.27
52923;BME280;38796;42.702;23.306;2023-01-24T12:20:56;96338.31;;;2.17;97.14
52923;BME280;38796;42.702;23.306;2023-01-24T12:22:57;96340.19;;;2.14;95.96
52923;BME280;38796;42.702;23.306;2023-01-24T12:25:02;96340.81;;;2.21;96.22
52923;BME280;38796;42.702;23.306;2023-01-24T12:27:02;96335.06;;;2.34;96.71
52923;BME280;38796;42.702;23.306;2023-01-24T12:29:06;96343.44;;;2.43;96.54
52923;BME280;38796;42.702;23.306;2023-01-24T12:31:13;96348.53;;;2.46;95.77
52923;BME280;38796;42.702;23.306;2023-01-24T12:33:20;96342.84;;;2.34;94.81
52923;BME280;38796;42.702;23.306;2023-01-24T12:35:23;96334.69;;;2.22;94.86
52923;BME280;38796;42.702;23.306;2023-01-24T12:37:25;96342.50;;;2.22;96.09
52923;BME280;38796;42.702;23.306;2023-01-24T12:39:29;96330.88;;;2.30;96.60
52923;BME280;38796;42.702;23.306;2023-01-24T12:41:31;96346.75;;;2.24;96.76
52923;BME280;38796;42.702;23.306;2023-01-24T12:43:36;96344.03;;;2.04;96.62
52923;BME280;38796;42.702;23.306;2023-01-24T12:45:40;96327.03;;;1.95;98.32
52923;BME280;38796;42.702;23.306;2023-01-24T12:47:46;96346.28;;;1.89;98.42
52923;BME280;38796;42.702;23.306;2023-01-24T12:49:55;96339.59;;;1.82;98.14
52923;BME280;38796;42.702;23.306;2023-01-24T12:52:00;96339.81;;;1.76;99.22
52923;BME280;38796;42.702;23.306;2023-01-24T12:54:08;96339.59;;;1.82;99.53
52923;BME280;38796;42.702;23.306;2023-01-24T12:56:11;96338.75;;;1.82;99.23
52923;BME280;38796;42.702;23.306;2023-01-24T12:58:16;96339.84;;;2.00;99.91
52923;BME280;38796;42.702;23.306;2023-01-24T13:00:19;96340.41;;;2.08;98.99
52923;BME280;38796;42.702;23.306;2023-01-24T13:02:31;96345.28;;;2.17;97.78
52923;BME280;38796;42.702;23.306;2023-01-24T13:04:42;96338.66;;;2.32;97.76
52923;BME280;38796;42.702;23.306;2023-01-24T13:06:51;96335.88;;;2.36;97.56
52923;BME280;38796;42.702;23.306;2023-01-24T13:09:02;96340.56;;;2.49;97.07
52923;BME280;38796;42.702;23.306;2023-01-24T13:11:18;96340.03;;;2.40;95.61
52923;BME280;38796;42.702;23.306;2023-01-24T13:13:22;96345.47;;;2.34;95.31
52923;BME280;38796;42.702;23.306;2023-01-24T13:15:24;96349.97;;;2.53;95.62
52923;BME280;38796;42.702;23.306;2023-01-24T13:17:37;96333.25;;;2.60;95.77
52923;BME280;38796;42.702;23.306;2023-01-24T13:19:54;96337.63;;;2.80;94.33
52923;BME280;38796;42.702;23.306;2023-01-24T13:21:59;96332.97;;;2.88;92.83
52923;BME280;38796;42.702;23.306;2023-01-24T13:24:27;96341.66;;;2.88;91.78
52923;BME280;38796;42.702;23.306;2023-01-24T13:26:41;96336.00;;;2.77;92.18
52923;BME280;38796;42.702;23.306;2023-01-24T13:28:51;96341.69;;;2.65;91.47
52923;BME280;38796;42.702;23.306;2023-01-24T13:31:02;96337.63;;;2.58;91.64
52923;BME280;38796;42.702;23.306;2023-01-24T13:33:03;96343.38;;;2.44;92.39
52923;BME280;38796;42.702;23.306;2023-01-24T13:35:14;96342.84;;;2.34;91.51
52923;BME280;38796;42.702;23.306;2023-01-24T13:37:17;96342.84;;;2.34;91.11
52923;BME280;38796;42.702;23.306;2023-01-24T13:39:30;96347.94;;;2.37;92.04
52923;BME280;38796;42.702;23.306;2023-01-24T13:41:34;96352.41;;;2.34;91.92
52923;BME280;38796;42.702;23.306;2023-01-24T13:43:55;96341.44;;;2.27;91.92
52923;BME280;38796;42.702;23.306;2023-01-24T13:45:55;96351.69;;;2.30;92.04
52923;BME280;38796;42.702;23.306;2023-01-24T13:47:54;96348.31;;;2.28;92.59
52923;BME280;38796;42.702;23.306;2023-01-24T13:50:15;96350.63;;;2.36;92.15
52923;BME280;38796;42.702;23.306;2023-01-24T13:52:36;96351.06;;;2.47;92.34
52923;BME280;38796;42.702;23.306;2023-01-24T13:54:36;96357.72;;;2.54;91.96
52923;BME280;38796;42.702;23.306;2023-01-24T13:59:19;96351.59;;;2.55;90.55
52923;BME280;38796;42.702;23.306;2023-01-24T14:01:18;96362.84;;;2.56;90.85
52923;BME280;38796;42.702;23.306;2023-01-24T14:03:21;96363.44;;;2.40;89.58
52923;BME280;38796;42.702;23.306;2023-01-24T14:05:41;96366.91;;;2.17;90.06
52923;BME280;38796;42.702;23.306;2023-01-24T14:07:40;96357.91;;;2.03;91.33
52923;BME280;38796;42.702;23.306;2023-01-24T14:09:38;96354.59;;;1.99;91.80
52923;BME280;38796;42.702;23.306;2023-01-24T14:11:39;96364.13;;;1.99;91.53
52923;BME280;38796;42.702;23.306;2023-01-24T14:13:42;96367.78;;;1.93;91.11
52923;BME280;38796;42.702;23.306;2023-01-24T14:15:43;96366.22;;;1.89;91.66
52923;BME280;38796;42.702;23.306;2023-01-24T14:17:47;96360.16;;;1.88;92.07
52923;BME280;38796;42.702;23.306;2023-01-24T14:19:46;96369.59;;;1.91;92.25
52923;BME280;38796;42.702;23.306;2023-01-24T14:21:48;96367.78;;;1.93;92.37
52923;BME280;38796;42.702;23.306;2023-01-24T14:23:48;96363.41;;;1.95;91.49
52923;BME280;38796;42.702;23.306;2023-01-24T14:25:52;96364.34;;;1.92;91.87
52923;BME280;38796;42.702;23.306;2023-01-24T14:27:54;96359.09;;;1.94;91.77